Time;durP1;ratioP1;P1;durP2;ratioP2;P2;SDS_P1;SDS_P2;PMS_P1;PMS_P2;Temp;Humidity;BMP_temperature;BMP_pressure;BME280_temperature;BME280_humidity;BME280_pressure;Samples;Min_cycle;Max_cycle;Signal;HPM_P1;HPM_P2
2022/04/05 00:00:42;;;;;;;84.57;26.70;;;;;;;7.67;100.00;100363.69;4682446;30;20082;-82
2022/04/05 00:03:11;;;;;;;83.03;27.70;;;;;;;7.86;100.00;100390.88;4682393;30;20077;-82
2022/04/05 00:11:30;;;;;;;76.63;26.05;;;;;;;7.53;100.00;100355.94;4630059;30;20226;-81
2022/04/05 00:14:17;;;;;;;79.15;28.25;;;;;;;8.58;100.00;100527.22;4629385;31;20493;-81
2022/04/05 00:16:42;;;;;;;73.78;25.42;;;;;;;7.88;100.00;100417.34;4629138;31;20056;-81
2022/04/05 00:23:15;;;;;;;63.28;25.58;;;;;;;8.58;100.00;100534.94;4629691;31;20082;-81
2022/04/05 00:28:46;;;;;;;73.15;23.88;;;;;;;8.21;100.00;100477.06;4629136;30;19942;-81
2022/04/05 00:34:48;;;;;;;68.82;24.13;;;;;;;8.57;100.00;100535.03;4629281;31;20091;-82
2022/04/05 00:37:25;;;;;;;77.13;26.25;;;;;;;8.08;100.00;100471.00;4629322;31;20070;-82
2022/04/05 00:40:12;;;;;;;69.75;24.85;;;;;;;8.57;100.00;100541.00;4777759;25;20086;-84
2022/04/05 00:42:49;;;;;;;66.20;24.42;;;;;;;7.57;100.00;100383.13;4664992;30;20048;-82
2022/04/05 00:45:37;;;;;;;70.90;24.67;;;;;;;7.53;100.00;100370.53;4664994;30;20105;-81
2022/04/05 00:48:40;;;;;;;69.38;24.42;;;;;;;8.56;100.00;100538.53;4665045;30;20190;-82
2022/04/05 00:51:08;;;;;;;68.28;24.35;;;;;;;8.08;100.00;100460.72;4664941;30;20484;-82
2022/04/05 00:53:42;;;;;;;69.78;26.08;;;;;;;7.77;100.00;100410.25;4666806;30;20035;-82
2022/04/05 01:06:44;;;;;;;76.25;26.27;;;;;;;8.54;100.00;100548.06;4703011;30;20134;-82
2022/04/05 01:09:13;;;;;;;71.65;26.45;;;;;;;7.59;100.00;100391.56;4702456;30;20033;-83
2022/04/05 01:11:39;;;;;;;77.25;29.38;;;;;;;8.13;100.00;100468.97;4702676;30;20124;-83
2022/04/05 01:14:37;;;;;;;79.18;28.27;;;;;;;8.11;100.00;100478.53;4702343;30;20475;-82
2022/04/05 01:17:12;;;;;;;73.63;26.73;;;;;;;8.17;100.00;100485.88;4702439;30;20033;-82
2022/04/05 01:19:44;;;;;;;73.43;27.60;;;;;;;8.23;100.00;100498.38;4702053;30;20471;-81
2022/04/05 01:22:27;;;;;;;79.75;27.55;;;;;;;7.48;100.00;100376.78;4702416;30;20095;-82
2022/04/05 01:28:19;;;;;;;70.25;25.65;;;;;;;8.10;100.00;100484.59;4702476;30;20115;-81
2022/04/05 01:30:55;;;;;;;70.85;27.30;;;;;;;7.44;100.00;100379.59;4702012;30;20030;-82
2022/04/05 01:33:32;;;;;;;65.63;26.75;;;;;;;7.37;100.00;100363.69;4702222;30;20038;-83
2022/04/05 01:35:58;;;;;;;72.38;26.77;;;;;;;7.78;100.00;100436.78;4702069;30;20455;-82
2022/04/05 01:44:55;;;;;;;76.25;27.08;;;;;;;7.53;100.00;100396.22;4648898;30;20090;-82
2022/04/05 01:59:26;;;;;;;72.47;26.23;;;;;;;8.48;100.00;100553.59;4685016;30;20054;-83
2022/04/05 02:02:17;;;;;;;75.43;27.27;;;;;;;8.47;100.00;100554.50;4684537;30;20066;-82
2022/04/05 02:04:48;;;;;;;76.03;29.10;;;;;;;7.72;100.00;100437.94;4683572;30;20510;-81
2022/04/05 02:31:18;;;;;;;78.80;29.88;;;;;;;8.02;100.00;100507.34;4683869;30;20129;-81
2022/04/05 02:42:39;;;;;;;73.65;26.10;;;;;;;7.26;100.00;100386.59;4684077;30;20171;-82
2022/04/05 02:45:13;;;;;;;69.78;26.67;;;;;;;7.72;100.00;100468.78;4683844;30;20096;-83
2022/04/05 02:47:55;;;;;;;64.47;25.13;;;;;;;7.97;100.00;100505.03;4683594;30;20038;-83
2022/04/05 02:51:07;;;;;;;76.57;26.15;;;;;;;8.34;100.00;100564.63;4683642;30;20092;-82
2022/04/05 02:57:10;;;;;;;63.53;22.30;;;;;;;8.34;100.00;100560.34;4683547;30;20439;-81
2022/04/05 02:59:41;;;;;;;63.53;23.90;;;;;;;7.56;100.00;100429.44;4683697;30;20448;-82
2022/04/05 03:02:51;;;;;;;68.40;24.73;;;;;;;7.14;100.00;100362.44;4683151;30;20026;-82
2022/04/05 03:06:06;;;;;;;72.68;25.88;;;;;;;8.32;100.00;100551.03;4683174;30;20750;-81
2022/04/05 03:08:47;;;;;;;67.45;25.55;;;;;;;7.53;100.00;100430.44;4683287;30;20046;-82
2022/04/05 03:11:26;;;;;;;63.47;26.42;;;;;;;7.26;100.00;100394.28;4683400;30;20030;-83
2022/04/05 03:13:52;;;;;;;76.80;26.75;;;;;;;8.06;100.00;100516.50;4683249;30;20034;-81
2022/04/05 03:16:27;;;;;;;67.88;25.77;;;;;;;8.21;100.00;100548.25;4682298;30;20042;-82
2022/04/05 03:19:08;;;;;;;67.47;25.00;;;;;;;8.28;100.00;100562.44;4683457;30;20045;-82
2022/04/05 03:22:00;;;;;;;62.03;23.85;;;;;;;7.92;100.00;100504.47;4667841;30;20046;-82
2022/04/05 03:34:49;;;;;;;60.65;22.63;;;;;;;7.22;100.00;100381.72;4657201;28;20121;-83
2022/04/05 03:40:32;;;;;;;64.90;23.40;;;;;;;8.27;100.00;100553.06;4913710;25;20078;-82
2022/04/05 03:43:12;;;;;;;60.55;23.00;;;;;;;7.30;100.00;100397.53;4699889;30;20042;-82
2022/04/05 03:46:06;;;;;;;59.87;23.60;;;;;;;8.28;100.00;100550.41;4699917;30;20033;-82
2022/04/05 03:48:36;;;;;;;59.25;24.63;;;;;;;7.34;100.00;100397.25;4700200;30;20312;-81
2022/04/05 03:51:17;;;;;;;65.20;26.17;;;;;;;7.47;100.00;100423.06;4699848;30;20029;-82
2022/04/05 03:54:19;;;;;;;77.38;27.60;;;;;;;8.28;100.00;100547.00;4699925;30;20168;-81
2022/04/05 03:56:51;;;;;;;71.00;27.67;;;;;;;7.27;100.00;100392.53;4700051;30;20038;-82
2022/04/05 04:03:17;;;;;;;73.57;27.30;;;;;;;8.29;100.00;100551.22;4680463;30;20404;-82
2022/04/05 04:06:16;;;;;;;71.97;27.85;;;;;;;7.38;100.00;100403.06;4666215;30;20069;-82
2022/04/05 04:08:47;;;;;;;74.15;28.42;;;;;;;7.35;100.00;100391.22;4680384;30;20041;-81
2022/04/05 04:11:13;;;;;;;72.80;27.17;;;;;;;7.29;100.00;100386.44;4680535;30;20118;-81
2022/04/05 04:13:39;;;;;;;74.32;26.92;;;;;;;7.47;100.00;100415.38;4680411;30;20038;-81
2022/04/05 04:16:18;;;;;;;71.90;26.67;;;;;;;8.29;100.00;100548.66;4680160;30;20524;-82
2022/04/05 04:18:46;;;;;;;67.63;26.52;;;;;;;7.92;100.00;100486.47;4680326;30;20046;-81
2022/04/05 04:21:11;;;;;;;73.20;25.65;;;;;;;8.29;100.00;100546.91;4680337;30;20609;-81
2022/04/05 04:23:42;;;;;;;68.80;24.95;;;;;;;8.26;100.00;100538.56;4680174;30;20081;-81
2022/04/05 04:26:07;;;;;;;69.82;26.30;;;;;;;8.29;100.00;100541.75;4680238;30;20038;-81
2022/04/05 04:28:33;;;;;;;65.05;26.05;;;;;;;8.15;100.00;100522.88;4680157;30;20089;-83
2022/04/05 04:30:58;;;;;;;60.78;24.83;;;;;;;8.28;100.00;100545.25;4680332;30;20034;-83
2022/04/05 04:33:23;;;;;;;64.55;24.50;;;;;;;8.27;100.00;100546.16;4680480;30;20081;-83
2022/04/05 04:35:52;;;;;;;61.67;24.13;;;;;;;8.17;100.00;100521.06;4680142;30;20034;-83
2022/04/05 04:38:18;;;;;;;62.30;23.77;;;;;;;8.21;100.00;100538.81;4680045;30;20041;-82
2022/04/05 04:40:47;;;;;;;61.40;23.10;;;;;;;8.03;100.00;100504.66;4697517;30;20053;-83
2022/04/05 04:43:16;;;;;;;63.05;22.15;;;;;;;8.14;100.00;100522.06;4699502;30;20494;-84
2022/04/05 04:45:42;;;;;;;62.25;22.05;;;;;;;8.27;100.00;100542.78;4699518;30;20037;-83
2022/04/05 04:48:07;;;;;;;60.63;22.52;;;;;;;8.00;100.00;100496.31;4699283;30;20382;-82
2022/04/05 04:50:33;;;;;;;64.30;23.50;;;;;;;8.12;100.00;100523.91;4699355;30;20069;-83
2022/04/05 04:52:58;;;;;;;60.42;22.52;;;;;;;8.28;100.00;100545.25;4697615;30;20458;-83
2022/04/05 04:55:27;;;;;;;57.03;22.23;;;;;;;8.29;100.00;100557.19;4699377;30;20087;-83
2022/04/05 04:57:56;;;;;;;62.25;22.63;;;;;;;8.08;100.00;100516.47;4697781;30;20042;-85
2022/04/05 05:00:21;;;;;;;58.60;22.02;;;;;;;8.10;100.00;100517.19;4699333;30;20042;-82
2022/04/05 05:02:48;;;;;;;59.92;21.98;;;;;;;8.29;100.00;100557.19;4699493;30;20183;-83
2022/04/05 05:05:18;;;;;;;64.80;22.10;;;;;;;8.29;100.00;100552.06;4699201;30;20509;-81
2022/04/05 05:07:47;;;;;;;64.50;23.20;;;;;;;7.88;100.00;100485.00;4699310;30;20037;-84
2022/04/05 05:10:13;;;;;;;58.03;22.70;;;;;;;8.06;100.00;100513.94;4699400;30;20491;-82
2022/04/05 05:12:40;;;;;;;63.80;23.52;;;;;;;8.31;100.00;100555.34;4699525;30;20061;-83
2022/04/05 05:15:08;;;;;;;60.30;22.02;;;;;;;8.11;100.00;100522.25;4699178;30;20037;-83
2022/04/05 05:17:34;;;;;;;56.55;22.02;;;;;;;8.31;100.00;100563.06;4697974;30;20040;-82
2022/04/05 05:19:59;;;;;;;67.75;23.70;;;;;;;8.26;100.00;100546.25;4699061;30;20041;-83
2022/04/05 05:22:24;;;;;;;66.22;23.30;;;;;;;8.33;100.00;100560.41;4699309;30;20037;-81
2022/04/05 05:24:50;;;;;;;67.20;23.08;;;;;;;8.22;100.00;100539.63;4698989;30;20034;-81
2022/04/05 05:29:50;;;;;;;54.92;21.10;;;;;;;8.19;100.00;100544.97;4654234;28;20062;-83
2022/04/05 05:32:15;;;;;;;60.45;21.48;;;;;;;8.15;100.00;100533.16;4663662;30;20061;-82
2022/04/05 05:34:41;;;;;;;61.92;24.13;;;;;;;8.20;100.00;100542.28;4664676;30;20087;-82
2022/04/05 05:37:09;;;;;;;57.63;22.58;;;;;;;7.96;100.00;100500.81;4815461;25;20524;-83
2022/04/05 05:39:48;;;;;;;57.08;24.45;;;;;;;7.50;100.00;100427.25;4672966;25;20061;-81
2022/04/05 05:49:14;;;;;;;57.00;23.02;;;;;;;7.49;100.00;100428.97;4682020;30;20080;-80
2022/04/05 05:51:51;;;;;;;57.83;21.73;;;;;;;7.34;100.00;100406.72;4682401;30;20056;-80
2022/04/05 05:54:18;;;;;;;54.92;22.13;;;;;;;7.35;100.00;100416.06;4682379;30;20046;-81
2022/04/05 05:56:55;;;;;;;54.33;22.20;;;;;;;7.38;100.00;100419.31;4682738;30;20396;-81
2022/04/05 05:59:32;;;;;;;57.70;22.80;;;;;;;7.74;100.00;100474.66;4695668;30;20049;-83
2022/04/05 06:01:57;;;;;;;59.50;23.15;;;;;;;8.38;100.00;100591.06;4682265;30;20038;-81
2022/04/05 06:04:31;;;;;;;67.57;24.40;;;;;;;7.93;100.00;100508.69;4682552;30;20064;-81
2022/04/05 06:07:03;;;;;;;61.25;25.10;;;;;;;7.36;100.00;100415.16;4682570;30;20049;-81
2022/04/05 06:09:31;;;;;;;69.82;25.13;;;;;;;7.44;100.00;100425.81;4682194;30;20158;-81
2022/04/05 06:12:14;;;;;;;64.10;25.40;;;;;;;7.67;100.00;100473.34;4682480;30;20496;-84
2022/04/05 06:15:13;;;;;;;65.88;25.20;;;;;;;8.46;100.00;100589.72;4682229;30;20041;-83
2022/04/05 06:17:44;;;;;;;64.00;26.00;;;;;;;8.10;100.00;100528.31;4682260;30;20438;-81
2022/04/05 06:20:23;;;;;;;64.82;22.92;;;;;;;7.97;100.00;100507.63;4681396;30;20049;-84
2022/04/05 06:23:14;;;;;;;;;;;;;;;;;;;;;
2022/04/05 06:25:43;;;;;;;;;;;;;;;8.54;100.00;100591.81;4692919;30;20064;-79
2022/04/05 06:28:09;;;;;;;61.50;23.15;;;;;;;7.58;100.00;100441.31;4701310;30;20384;-86
2022/04/05 06:30:55;;;;;;;65.30;22.02;;;;;;;7.96;100.00;100493.09;4822217;25;20085;-76
2022/04/05 06:33:27;;;;;;;61.03;22.60;;;;;;;7.68;100.00;100450.16;4700972;30;20391;-80
2022/04/05 06:38:40;;;;;;;52.15;19.88;;;;;;;7.71;100.00;100446.56;4701468;30;20410;-82
2022/04/05 06:41:11;;;;;;;54.63;20.30;;;;;;;7.83;100.00;100452.75;4701047;30;20041;-80
2022/04/05 06:43:39;;;;;;;;;;;;;;;8.84;100.00;100609.78;4701810;30;20045;-79
2022/04/05 06:46:35;;;;;;;49.42;18.73;;;;;;;8.29;100.00;100507.50;4701627;30;19919;-77
2022/04/05 06:49:32;;;;;;;57.13;21.13;;;;;;;8.98;100.00;100608.97;4678380;25;20534;-84
2022/04/05 06:52:04;;;;;;;50.50;19.45;;;;;;;8.61;100.00;100557.91;4683878;30;20398;-79
2022/04/05 06:54:30;;;;;;;42.92;17.27;;;;;;;8.17;100.00;100491.03;4683358;30;20072;-84
2022/04/05 06:57:30;;;;;;;43.03;17.58;;;;;;;8.98;100.00;100616.69;4683527;30;20049;-80
2022/04/05 07:00:22;;;;;;;43.60;17.90;;;;;;;8.02;100.00;100463.63;4702158;25;20041;-85
2022/04/05 07:03:23;;;;;;;38.47;17.58;;;;;;;8.38;100.00;100531.88;4629381;31;20118;-82
2022/04/05 07:05:58;;;;;;;43.55;17.48;;;;;;;8.47;100.00;100544.22;4597621;31;20169;-84
2022/04/05 07:12:51;;;;;;;43.72;18.45;;;;;;;9.06;100.00;100632.53;4564310;31;20093;-83
2022/04/05 07:16:00;;;;;;;45.83;17.83;;;;;;;9.09;100.00;100628.00;4564284;31;20049;-82
2022/04/05 07:19:21;;;;;;;44.92;17.83;;;;;;;9.13;100.00;100626.06;4564267;31;20060;-83
2022/04/05 07:22:39;;;;;;;41.50;18.73;;;;;;;8.06;100.00;100457.38;4564157;31;20511;-82
2022/04/05 07:25:05;;;;;;;44.25;17.60;;;;;;;8.12;100.00;100451.06;4524982;31;20060;-84
2022/04/05 07:27:36;;;;;;;46.65;16.77;;;;;;;8.41;100.00;100493.09;4563671;31;20037;-80
2022/04/05 07:30:14;;;;;;;38.38;16.30;;;;;;;8.39;100.00;100480.34;4564012;31;20198;-80
2022/04/05 07:33:00;;;;;;;40.78;16.33;;;;;;;8.18;100.00;100422.41;4563772;31;20091;-82
2022/04/05 07:35:34;;;;;;;38.78;14.52;;;;;;;8.18;100.00;100420.66;4547746;31;20049;-80
2022/04/05 07:38:12;;;;;;;42.58;16.48;;;;;;;8.33;100.00;100429.19;4547775;31;20589;-80
2022/04/05 07:40:52;;;;;;;42.53;15.43;;;;;;;8.99;100.00;100546.25;4577057;31;20104;-80
2022/04/05 07:44:01;;;;;;;39.00;16.27;;;;;;;9.46;100.00;100613.72;4635103;30;20491;-84
2022/04/05 07:46:32;;;;;;;37.95;15.07;;;;;;;9.10;100.00;100554.16;4648352;30;20381;-81
2022/04/05 07:51:56;;;;;;;39.20;15.05;;;;;;;8.29;100.00;100438.84;4698461;30;20056;-81
2022/04/05 07:54:37;;;;;;;39.47;14.75;;;;;;;8.96;100.00;100552.41;4698097;30;20101;-81
2022/04/05 07:57:47;;;;;;;38.00;14.93;;;;;;;9.32;100.00;100621.47;4696106;30;20537;-76
2022/04/05 08:00:26;;;;;;;39.47;14.98;;;;;;;8.93;100.00;100547.44;4677119;30;20069;-80
2022/04/05 08:03:28;;;;;;;34.58;14.98;;;;;;;9.46;100.00;100616.31;4680715;30;20046;-79
2022/04/05 08:06:06;;;;;;;36.53;15.73;;;;;;;9.04;100.00;100551.94;4666577;30;20482;-78
2022/04/05 08:08:40;;;;;;;37.75;15.30;;;;;;;9.16;100.00;100561.50;4645674;30;20095;-80
2022/04/05 08:11:34;;;;;;;35.13;14.95;;;;;;;9.47;100.00;100607.66;4641748;30;20066;-79
2022/04/05 08:14:11;;;;;;;40.03;13.93;;;;;;;9.26;100.00;100565.16;4595676;31;20040;-79
2022/04/05 08:17:17;;;;;;;29.70;12.98;;;;;;;8.51;100.00;100435.03;4582433;31;20147;-79
2022/04/05 08:19:42;;;;;;;33.28;13.88;;;;;;;8.55;100.00;100449.34;4563026;31;20060;-79
2022/04/05 08:22:34;;;;;;;33.67;14.48;;;;;;;9.61;100.00;100629.16;4563303;31;20042;-82
2022/04/05 08:25:18;;;;;;;34.45;13.63;;;;;;;9.17;100.00;100560.59;4501464;31;20495;-78
2022/04/05 08:27:55;;;;;;;;;;;;;;;;;;;;;
2022/04/05 08:30:42;;;;;;;31.67;13.90;;;;;;;9.64;100.00;100629.00;4503225;31;20442;-79
2022/04/05 08:33:20;;;;;;;30.95;13.63;;;;;;;8.95;100.00;100519.00;4530273;31;20046;-76
2022/04/05 08:35:45;;;;;;;33.80;14.05;;;;;;;9.22;100.00;100544.81;4530089;31;20054;-78
2022/04/05 08:38:10;;;;;;;38.25;13.68;;;;;;;9.99;100.00;100632.75;4531007;31;20580;-80
2022/04/05 08:40:51;;;;;;;30.73;13.13;;;;;;;10.12;100.00;100640.53;4530925;31;20101;-80
2022/04/05 08:43:16;;;;;;;34.73;12.80;;;;;;;9.18;100.00;100475.47;4530766;31;20137;-79
2022/04/05 08:45:45;;;;;;;33.03;12.82;;;;;;;9.52;100.00;100539.50;4536826;31;20148;-77
2022/04/05 08:48:26;;;;;;;26.75;12.75;;;;;;;9.30;100.00;100532.31;4546785;31;20058;-76
2022/04/05 08:50:52;;;;;;;34.20;15.70;;;;;;;9.30;100.00;100540.84;4548570;31;20096;-88
2022/04/05 08:53:20;;;;;;;37.08;14.38;;;;;;;9.49;100.00;100582.59;4533535;31;20072;-83
2022/04/05 09:00:12;;;;;;;30.75;12.80;;;;;;;9.81;100.00;100651.94;4612680;31;20468;-79
2022/04/05 09:02:47;;;;;;;;;;;;;;;;;;;;;
2022/04/05 09:08:48;;;;;;;36.72;14.93;;;;;;;9.16;100.00;100479.91;4663087;30;20117;-78
2022/04/05 09:11:14;;;;;;;29.33;14.43;;;;;;;10.27;100.00;100649.91;4663013;30;20101;-82
2022/04/05 09:13:56;;;;;;;27.27;14.85;;;;;;;10.14;100.00;100638.69;4663230;30;20113;-80
2022/04/05 09:16:28;;;;;;;29.63;14.48;;;;;;;9.96;100.00;100609.72;4652283;30;20459;-79
2022/04/05 09:18:54;;;;;;;29.55;15.15;;;;;;;10.20;100.00;100658.09;4666163;30;20121;-80
2022/04/05 09:21:19;;;;;;;31.52;14.40;;;;;;;9.88;100.00;100606.81;4666098;30;20118;-78
2022/04/05 09:23:52;;;;;;;28.33;14.27;;;;;;;10.18;100.00;100658.19;4666014;30;20062;-81
2022/04/05 09:26:18;;;;;;;29.10;14.38;;;;;;;10.15;100.00;100649.84;4652088;30;20053;-80
2022/04/05 09:28:50;;;;;;;34.58;13.55;;;;;;;10.16;100.00;100659.22;4665779;30;20070;-86
2022/04/05 09:31:37;;;;;;;29.17;14.93;;;;;;;10.05;100.00;100647.84;4665917;30;20129;-81
2022/04/05 09:34:12;;;;;;;29.25;12.85;;;;;;;9.74;100.00;100592.22;4665741;30;20049;-80
2022/04/05 09:36:56;;;;;;;28.83;14.15;;;;;;;9.19;100.00;100499.47;4665871;30;20121;-80
2022/04/05 09:43:12;;;;;;;;;;;;;;;;;;;;;
2022/04/05 09:46:04;;;;;;;30.20;13.82;;;;;;;9.56;100.00;100497.16;4651037;30;20045;-85
2022/04/05 09:49:10;;;;;;;27.38;12.98;;;;;;;10.87;100.00;100670.03;4666058;30;20050;-83
2022/04/05 09:54:29;;;;;;;31.35;12.82;;;;;;;10.18;99.83;100542.09;4668089;30;20056;-82
2022/04/05 10:09:06;;;;;;;27.40;11.75;;;;;;;10.82;100.00;100679.03;5110929;25;20453;-82
2022/04/05 10:16:48;;;;;;;27.10;11.63;;;;;;;10.57;100.00;100678.06;4667663;30;20069;-80
2022/04/05 13:01:16;;;;;;;18.77;9.45;;;;;;;12.68;80.86;100658.13;4668607;30;20066;-82
2022/04/05 13:58:56;;;;;;;24.35;13.77;;;;;;;11.59;89.72;100641.84;4692305;24;20058;-81
2022/04/05 14:08:47;;;;;;;27.73;14.00;;;;;;;11.32;90.99;100646.38;4650690;30;20049;-79
2022/04/05 14:17:57;;;;;;;34.42;14.98;;;;;;;10.71;93.78;100573.00;4667394;30;20069;-79
2022/04/05 14:24:21;;;;;;;34.50;15.23;;;;;;;11.32;94.21;100641.19;4667477;30;20133;-79
2022/04/05 14:27:48;;;;;;;;;;;;;;;;;;;;;
2022/04/05 14:30:44;;;;;;;32.38;14.52;;;;;;;10.63;92.56;100501.25;4650996;30;20381;-76
2022/04/05 14:43:15;;;;;;;31.52;15.30;;;;;;;12.09;90.49;100619.34;4614292;31;20086;-72
2022/04/05 14:46:06;;;;;;;29.17;15.55;;;;;;;11.19;89.64;100431.84;4614314;31;20036;-73
2022/04/05 14:48:32;;;;;;;31.83;15.00;;;;;;;11.80;87.61;100519.72;4613907;31;20134;-76
2022/04/05 14:51:00;;;;;;;32.30;15.30;;;;;;;11.86;86.22;100511.50;4610765;31;20422;-75
2022/04/05 14:53:53;;;;;;;28.35;14.65;;;;;;;12.71;85.47;100613.06;4597399;31;20040;-74
2022/04/05 15:03:17;;;;;;;26.30;14.25;;;;;;;13.09;83.76;100602.38;5705939;25;20012;-75
2022/04/05 15:10:09;;;;;;;30.90;14.57;;;;;;;12.16;81.80;100447.13;4673235;25;20094;-76
2022/04/05 15:12:35;;;;;;;29.67;14.75;;;;;;;12.88;80.67;100568.53;4650665;30;20393;-75
2022/04/05 15:15:02;;;;;;;31.48;14.73;;;;;;;12.85;81.17;100566.19;4666364;30;20038;-75
2022/04/05 15:21:18;;;;;;;27.45;14.43;;;;;;;12.64;79.15;100499.53;4613625;31;20075;-76
2022/04/05 15:24:01;;;;;;;25.42;13.27;;;;;;;12.48;79.66;100462.78;4613578;31;20083;-78
2022/04/05 15:26:59;;;;;;;24.73;13.15;;;;;;;12.11;77.46;100417.34;4613502;31;20095;-76
2022/04/05 15:30:13;;;;;;;27.40;12.95;;;;;;;12.04;78.62;100432.50;4613438;31;20056;-79
2022/04/05 15:33:12;;;;;;;26.83;13.82;;;;;;;12.00;80.76;100425.94;4563882;31;20052;-79
2022/04/05 15:35:54;;;;;;;24.95;14.43;;;;;;;12.57;80.59;100533.78;4563443;31;20148;-77
2022/04/05 15:38:37;;;;;;;;;;;;;;;12.94;79.72;100591.41;4564213;31;20056;-77
2022/04/05 15:41:02;;;;;;;32.38;13.27;;;;;;;12.48;79.51;100524.13;4563667;31;20033;-78
2022/04/05 15:43:42;;;;;;;24.95;13.05;;;;;;;12.71;79.58;100587.16;4563890;31;20045;-78
2022/04/05 15:46:10;;;;;;;28.23;14.10;;;;;;;11.75;78.81;100476.03;4563990;31;20113;-78
2022/04/05 15:48:35;;;;;;;29.38;13.70;;;;;;;12.16;79.69;100562.78;4550212;31;20097;-81
2022/04/05 15:51:01;;;;;;;32.63;13.60;;;;;;;12.15;80.54;100577.47;4563530;31;20087;-77
2022/04/05 15:53:26;;;;;;;32.28;13.98;;;;;;;12.05;80.91;100577.34;4565922;31;20044;-78
2022/04/05 15:56:13;;;;;;;27.38;14.07;;;;;;;11.97;81.37;100576.22;4596730;30;20059;-82
2022/04/05 15:58:39;;;;;;;26.27;14.23;;;;;;;11.88;81.74;100582.06;4596407;31;20055;-80
2022/04/05 16:01:06;;;;;;;30.73;15.68;;;;;;;11.59;82.23;100546.16;4596560;31;20071;-81
2022/04/05 16:03:32;;;;;;;28.17;15.23;;;;;;;11.52;83.08;100544.16;4596322;31;20127;-78
2022/04/05 16:05:58;;;;;;;30.10;16.25;;;;;;;11.40;83.96;100530.31;4596320;31;20545;-80
2022/04/05 16:08:26;;;;;;;30.33;15.88;;;;;;;11.25;83.71;100515.91;4615906;25;20063;-79
2022/04/05 16:11:07;;;;;;;30.73;16.20;;;;;;;11.37;83.50;100531.34;4747458;25;20131;-78
2022/04/05 16:13:32;;;;;;;35.33;16.50;;;;;;;11.57;83.29;100560.13;4699738;30;20041;-77
2022/04/05 16:15:58;;;;;;;30.10;15.35;;;;;;;11.48;82.69;100551.28;4699666;30;20808;-76
2022/04/05 16:18:23;;;;;;;31.55;15.70;;;;;;;11.62;83.23;100582.16;4699945;30;20065;-76
2022/04/05 16:20:49;;;;;;;31.17;16.38;;;;;;;11.70;83.07;100579.00;4699561;30;20412;-78
2022/04/05 16:23:15;;;;;;;30.73;15.93;;;;;;;11.81;82.58;100580.88;4699163;30;20514;-76
2022/04/05 16:25:41;;;;;;;35.13;15.48;;;;;;;11.78;81.48;100551.66;4699537;30;20038;-76
2022/04/05 16:28:07;;;;;;;29.92;14.57;;;;;;;11.93;81.69;100562.72;4699719;30;20120;-76
2022/04/05 16:30:34;;;;;;;30.80;14.98;;;;;;;12.05;82.14;100572.16;4699712;30;20118;-77
2022/04/05 16:33:00;;;;;;;31.50;14.27;;;;;;;12.10;81.28;100571.00;4699780;30;20025;-76
2022/04/05 16:35:26;;;;;;;30.23;14.07;;;;;;;12.07;80.51;100572.03;4699446;30;20368;-77
2022/04/05 16:37:51;;;;;;;28.52;13.85;;;;;;;11.99;80.57;100574.34;4699459;30;20060;-77
2022/04/05 16:40:19;;;;;;;28.75;13.77;;;;;;;11.88;80.82;100561.38;4699547;30;20045;-76
2022/04/05 16:42:45;;;;;;;25.80;12.85;;;;;;;11.53;80.48;100519.94;4699455;30;20049;-77
2022/04/05 16:45:13;;;;;;;21.98;12.48;;;;;;;11.45;81.09;100523.88;4699497;30;20458;-77
2022/04/05 16:47:38;;;;;;;26.23;13.25;;;;;;;11.35;80.99;100512.53;4699537;30;20099;-77
2022/04/05 16:50:19;;;;;;;26.67;13.85;;;;;;;10.88;82.25;100451.28;4699320;30;20030;-79
2022/04/05 16:52:46;;;;;;;35.30;15.00;;;;;;;11.41;82.80;100553.50;4699276;30;20033;-77
2022/04/05 16:55:12;;;;;;;29.73;13.88;;;;;;;11.46;82.32;100560.91;4699248;30;20288;-79
2022/04/05 16:57:40;;;;;;;31.27;13.70;;;;;;;11.41;82.58;100568.19;4699498;30;20025;-78
2022/04/05 17:00:10;;;;;;;33.22;14.05;;;;;;;10.87;83.28;100485.81;4698566;30;20053;-79
2022/04/05 17:02:36;;;;;;;31.80;15.27;;;;;;;11.23;84.29;100549.59;4699100;30;20040;-79
2022/04/05 17:05:06;;;;;;;36.35;16.23;;;;;;;11.02;84.49;100517.50;4699548;30;20033;-77
2022/04/05 17:07:34;;;;;;;35.70;16.25;;;;;;;10.94;85.54;100514.63;4697957;30;20042;-77
2022/04/05 17:10:03;;;;;;;36.80;16.38;;;;;;;10.91;86.11;100519.09;4699084;30;20058;-77
2022/04/05 17:12:29;;;;;;;37.30;16.40;;;;;;;11.16;86.76;100575.03;4698288;30;20092;-79
2022/04/05 17:14:54;;;;;;;32.58;16.77;;;;;;;11.11;88.00;100571.97;4699519;30;20037;-78
2022/04/05 17:17:22;;;;;;;34.65;15.55;;;;;;;10.92;88.26;100550.91;4698944;30;20040;-78
2022/04/05 17:19:49;;;;;;;36.17;18.33;;;;;;;10.94;88.38;100571.47;4699159;30;20052;-77
2022/04/05 17:22:15;;;;;;;36.58;16.50;;;;;;;10.90;88.77;100582.00;4698952;30;20040;-78
2022/04/05 17:24:41;;;;;;;34.42;18.00;;;;;;;10.71;89.75;100563.50;4698867;30;20124;-78
2022/04/05 17:27:07;;;;;;;33.65;15.93;;;;;;;10.66;88.78;100564.75;4699182;30;20040;-79
2022/04/05 17:29:32;;;;;;;35.78;15.70;;;;;;;10.47;88.96;100550.50;4682773;30;20127;-77
2022/04/05 17:31:59;;;;;;;34.28;14.77;;;;;;;10.57;90.31;100585.09;4699148;30;20491;-77
2022/04/05 17:34:24;;;;;;;32.30;14.15;;;;;;;10.46;91.25;100582.41;4699035;30;20041;-77
2022/04/05 17:36:49;;;;;;;31.42;14.88;;;;;;;10.42;92.03;100593.88;4700745;30;20042;-78
2022/04/05 17:39:15;;;;;;;34.80;15.00;;;;;;;10.21;92.50;100569.44;4701966;30;20033;-77
2022/04/05 17:41:40;;;;;;;31.63;14.43;;;;;;;10.26;93.93;100583.72;4686713;30;20046;-77
2022/04/05 17:44:06;;;;;;;30.08;15.18;;;;;;;10.07;94.44;100562.59;4702197;30;20447;-78
2022/04/05 17:46:32;;;;;;;35.38;15.93;;;;;;;10.19;94.31;100577.28;4686234;30;20044;-77
2022/04/05 17:48:57;;;;;;;36.35;15.43;;;;;;;10.15;94.49;100569.84;4701878;30;20042;-78
2022/04/05 17:51:26;;;;;;;35.40;14.07;;;;;;;10.13;94.84;100564.78;4701943;30;20497;-78
2022/04/05 17:53:52;;;;;;;36.45;15.85;;;;;;;9.93;95.44;100529.13;4685806;30;20053;-77
2022/04/05 17:56:18;;;;;;;38.83;18.13;;;;;;;9.76;95.56;100515.59;4702069;30;20460;-79
2022/04/05 17:58:44;;;;;;;45.92;18.75;;;;;;;10.00;95.74;100551.84;4686303;30;20112;-76
2022/04/05 18:01:14;;;;;;;38.50;17.60;;;;;;;9.77;96.05;100532.69;4701655;30;20040;-77
2022/04/05 18:03:42;;;;;;;36.40;16.50;;;;;;;9.81;96.37;100540.22;4700503;30;20450;-77
2022/04/05 18:06:07;;;;;;;37.42;17.52;;;;;;;10.00;96.58;100574.25;4700395;30;20021;-79
2022/04/05 18:08:33;;;;;;;39.75;17.38;;;;;;;9.67;96.41;100518.75;4685650;30;20041;-77
2022/04/05 18:11:00;;;;;;;36.10;18.23;;;;;;;9.89;97.20;100563.78;4701489;30;20560;-78
2022/04/05 18:13:25;;;;;;;46.63;18.50;;;;;;;9.63;96.82;100524.19;4701649;30;20038;-77
2022/04/05 18:15:51;;;;;;;39.63;17.88;;;;;;;9.63;97.14;100522.44;4701479;30;20168;-80
2022/04/05 18:18:16;;;;;;;41.28;18.52;;;;;;;9.54;97.15;100511.88;4685948;30;20045;-77
2022/04/05 18:20:43;;;;;;;41.72;18.48;;;;;;;9.67;97.44;100530.81;4701394;30;20037;-77
2022/04/05 18:23:11;;;;;;;43.38;18.95;;;;;;;9.88;97.51;100573.28;4701200;30;20034;-78
2022/04/05 18:25:39;;;;;;;43.05;18.52;;;;;;;9.48;97.50;100513.09;4701192;30;20029;-77
2022/04/05 18:28:07;;;;;;;45.65;19.83;;;;;;;9.48;97.95;100526.00;4701186;30;20045;-78
2022/04/05 18:30:35;;;;;;;42.58;20.10;;;;;;;9.65;98.20;100572.16;4701383;30;20057;-79
2022/04/05 18:33:01;;;;;;;46.67;19.85;;;;;;;9.42;98.88;100534.09;4701207;30;20045;-78
2022/04/05 18:35:26;;;;;;;44.83;20.70;;;;;;;9.23;99.00;100507.84;4685616;30;20399;-78
2022/04/05 18:37:58;;;;;;;46.00;20.50;;;;;;;9.57;99.57;100563.25;4701060;30;20034;-77
2022/04/05 18:40:23;;;;;;;50.42;20.58;;;;;;;9.54;99.34;100559.13;4701220;30;20053;-77
2022/04/05 18:42:48;;;;;;;53.33;22.63;;;;;;;9.56;99.35;100569.34;4700935;30;20038;-76